Time;durP1;ratioP1;P1;durP2;ratioP2;P2;SDS_P1;SDS_P2;PMS_P1;PMS_P2;Temp;Humidity;BMP_temperature;BMP_pressure;BME280_temperature;BME280_humidity;BME280_pressure;Samples;Min_cycle;Max_cycle;Signal;HPM_P1;HPM_P2
2022/06/07 00:00:35;;;;;;;1954.22;409.52;;;13.80;99.90;;;;;;5114143;28;20055;-79
2022/06/07 00:03:01;;;;;;;1284.77;414.30;;;12.40;99.90;;;;;;5112951;28;20122;-79
2022/06/07 00:05:27;;;;;;;1537.13;332.75;;;13.00;99.90;;;;;;5114129;28;20126;-79
2022/06/07 00:07:54;;;;;;;1999.90;537.75;;;12.70;99.90;;;;;;5095544;28;20036;-81
2022/06/07 00:10:21;;;;;;;1711.93;363.35;;;12.90;99.90;;;;;;5095152;28;20051;-81
2022/06/07 00:12:47;;;;;;;1999.90;493.98;;;12.70;99.90;;;;;;5078649;28;20126;-81
2022/06/07 00:15:13;;;;;;;1830.18;800.08;;;12.70;99.90;;;;;;5112386;28;20127;-79
2022/06/07 00:17:39;;;;;;;1999.90;717.55;;;12.80;99.90;;;;;;5112619;28;20193;-81
2022/06/07 00:20:05;;;;;;;1999.90;745.33;;;13.00;99.90;;;;;;5112313;28;20055;-80
2022/06/07 00:22:31;;;;;;;1999.90;723.70;;;12.70;99.90;;;;;;5113506;28;20043;-79
2022/06/07 00:24:57;;;;;;;1999.90;522.47;;;12.70;99.90;;;;;;5094021;28;20595;-80
2022/06/07 00:27:24;;;;;;;1869.28;261.70;;;12.80;99.90;;;;;;5113367;28;20058;-79
2022/06/07 00:29:50;;;;;;;1861.05;651.17;;;12.80;99.90;;;;;;5112314;28;20043;-80
2022/06/07 00:32:18;;;;;;;1999.90;638.05;;;12.50;99.90;;;;;;5094606;28;20400;-82
2022/06/07 00:34:44;;;;;;;1792.20;798.85;;;13.30;99.90;;;;;;5089769;28;20044;-80
2022/06/07 00:37:10;;;;;;;1305.28;251.45;;;12.80;99.90;;;;;;5093137;28;20048;-81
2022/06/07 00:39:36;;;;;;;1999.90;792.65;;;12.50;99.90;;;;;;5094838;28;20055;-84
2022/06/07 00:42:02;;;;;;;1364.80;215.75;;;13.00;99.90;;;;;;5077835;28;20042;-82
2022/06/07 00:44:44;;;;;;;1776.70;285.02;;;12.80;99.90;;;;;;5112029;28;20126;-80
2022/06/07 00:47:14;;;;;;;1999.90;932.30;;;12.90;99.90;;;;;;5094339;28;20043;-82
2022/06/07 00:49:46;;;;;;;1915.90;638.13;;;12.50;99.90;;;;;;5093429;28;20051;-82
2022/06/07 00:52:12;;;;;;;1999.90;501.33;;;12.80;99.90;;;;;;5093621;28;20043;-82
2022/06/07 00:54:37;;;;;;;1999.90;674.55;;;12.80;99.90;;;;;;5077498;28;20122;-83
2022/06/07 00:57:04;;;;;;;1999.90;912.05;;;13.00;99.90;;;;;;5076414;28;20469;-84
2022/06/07 00:59:30;;;;;;;1818.53;814.25;;;12.80;99.90;;;;;;5094133;28;20108;-81
2022/06/07 01:01:56;;;;;;;1999.90;658.55;;;13.10;99.90;;;;;;5094511;28;20180;-83
2022/06/07 01:04:23;;;;;;;1999.90;704.50;;;12.60;99.90;;;;;;5093894;28;20100;-82
2022/06/07 01:12:19;;;;;;;1999.90;468.88;;;14.50;99.90;;;;;;5093303;28;20724;-84
2022/06/07 01:14:44;;;;;;;1999.90;656.95;;;13.00;99.90;;;;;;5093216;28;20096;-84
2022/06/07 01:17:11;;;;;;;1705.22;244.18;;;12.80;99.90;;;;;;5075884;28;20043;-85
2022/06/07 01:19:37;;;;;;;1053.75;168.60;;;13.70;99.90;;;;;;5077132;28;20495;-83
2022/06/07 01:22:03;;;;;;;1966.85;387.63;;;13.10;99.90;;;;;;5076897;28;20468;-81
2022/06/07 01:24:29;;;;;;;1999.90;545.92;;;13.90;99.90;;;;;;5094205;28;20043;-84
2022/06/07 01:26:54;;;;;;;1924.43;837.67;;;12.70;99.90;;;;;;5092645;28;20178;-83
2022/06/07 01:29:20;;;;;;;1356.93;255.80;;;12.90;99.90;;;;;;5093047;28;20087;-83
2022/06/07 01:31:47;;;;;;;1999.90;735.20;;;13.00;99.90;;;;;;5094228;28;20054;-84
2022/06/07 01:34:13;;;;;;;1999.90;404.00;;;12.80;99.90;;;;;;5075388;28;20058;-83
2022/06/07 01:36:38;;;;;;;1657.13;294.92;;;13.20;99.90;;;;;;5076264;28;20047;-83
2022/06/07 01:41:54;;;;;;;1999.90;856.53;;;13.00;99.90;;;;;;5093076;28;20055;-86
2022/06/07 01:44:22;;;;;;;1999.90;872.70;;;13.10;99.90;;;;;;5111665;28;20047;-82
2022/06/07 01:46:48;;;;;;;1181.25;350.98;;;12.70;99.90;;;;;;5076367;28;20051;-83
2022/06/07 01:49:15;;;;;;;1999.90;690.33;;;13.00;99.90;;;;;;5075140;28;20060;-81
2022/06/07 01:51:40;;;;;;;1999.90;725.00;;;12.80;99.90;;;;;;5075124;28;20047;-83
2022/06/07 01:54:06;;;;;;;1210.35;247.10;;;12.70;99.90;;;;;;5076855;28;20433;-83
2022/06/07 01:56:32;;;;;;;1364.22;205.20;;;13.30;99.90;;;;;;5092314;28;20488;-83
2022/06/07 01:58:57;;;;;;;1999.90;999.90;;;13.40;99.90;;;;;;5111619;28;20111;-83
2022/06/07 02:01:25;;;;;;;1921.90;412.08;;;12.70;99.90;;;;;;5092662;28;20054;-82
2022/06/07 02:03:51;;;;;;;1999.90;999.90;;;13.20;99.90;;;;;;5111564;28;20399;-81
2022/06/07 02:06:17;;;;;;;1999.90;684.75;;;13.20;99.90;;;;;;5075789;28;20051;-85
2022/06/07 02:08:43;;;;;;;1195.57;185.93;;;13.90;99.90;;;;;;5093353;28;20051;-81
2022/06/07 02:11:22;;;;;;;1999.90;534.25;;;12.80;99.90;;;;;;5092164;28;20052;-84
2022/06/07 02:13:48;;;;;;;;;;;13.30;99.90;;;;;;5111740;28;20445;-82
2022/06/07 02:16:15;;;;;;;1788.22;323.02;;;13.60;99.90;;;;;;5092940;28;19976;-81
2022/06/07 02:18:40;;;;;;;1680.17;548.10;;;13.20;99.90;;;;;;5092313;28;20062;-83
2022/06/07 02:21:07;;;;;;;1766.07;422.70;;;13.30;99.90;;;;;;5093591;28;20039;-86
2022/06/07 02:23:35;;;;;;;1622.90;656.20;;;12.80;99.90;;;;;;5096256;28;20400;-83
2022/06/07 02:26:06;;;;;;;1999.90;504.27;;;12.90;99.90;;;;;;5093826;28;20127;-83
2022/06/07 02:28:35;;;;;;;1869.03;442.10;;;12.80;99.90;;;;;;5092577;28;20054;-84
2022/06/07 02:31:04;;;;;;;1999.90;571.92;;;12.80;99.90;;;;;;5076861;28;20048;-86
2022/06/07 02:33:31;;;;;;;1989.80;704.72;;;12.20;99.90;;;;;;5110654;28;20048;-83
2022/06/07 02:35:57;;;;;;;1999.90;636.60;;;13.10;99.90;;;;;;5111317;28;20047;-85
2022/06/07 02:38:23;;;;;;;900.70;155.15;;;12.90;99.90;;;;;;5110198;28;20127;-90
2022/06/07 02:40:51;;;;;;;1999.90;699.10;;;13.00;99.90;;;;;;5092374;28;20097;-84
2022/06/07 02:43:23;;;;;;;1999.90;550.67;;;13.10;99.90;;;;;;5075106;28;20086;-87
2022/06/07 02:45:51;;;;;;;1999.90;956.45;;;13.00;99.90;;;;;;5091962;28;20043;-85
2022/06/07 02:48:22;;;;;;;1160.82;183.98;;;12.80;99.90;;;;;;5075559;28;20079;-85
2022/06/07 02:50:49;;;;;;;1999.90;664.50;;;12.90;99.90;;;;;;5092260;28;20052;-87
2022/06/07 02:53:17;;;;;;;1661.60;620.63;;;12.80;99.90;;;;;;5077246;28;20423;-83
2022/06/07 02:55:43;;;;;;;1768.28;663.03;;;13.60;99.90;;;;;;5062899;28;20107;-84
2022/06/07 02:58:08;;;;;;;1999.90;511.63;;;13.20;99.90;;;;;;5096726;28;20051;-85
2022/06/07 03:00:34;;;;;;;1505.30;291.58;;;11.90;99.90;;;;;;5095816;28;20146;-86
2022/06/07 03:03:00;;;;;;;1999.90;741.60;;;12.90;99.90;;;;;;5096233;28;20050;-84
2022/06/07 03:05:25;;;;;;;1999.90;735.08;;;12.90;99.90;;;;;;5096062;28;20054;-89
2022/06/07 03:07:51;;;;;;;1999.90;441.08;;;12.80;99.90;;;;;;5095943;28;20387;-85
2022/06/07 03:10:20;;;;;;;1999.90;445.52;;;12.90;99.90;;;;;;5063223;28;20504;-86
2022/06/07 03:12:46;;;;;;;1999.90;568.80;;;13.00;99.90;;;;;;5095681;28;20105;-86
2022/06/07 03:15:12;;;;;;;1010.28;191.27;;;13.20;99.90;;;;;;5096400;28;20467;-86
2022/06/07 03:17:39;;;;;;;1910.00;383.35;;;13.20;99.90;;;;;;5078751;28;20058;-84
2022/06/07 03:20:06;;;;;;;1999.90;442.50;;;13.00;99.90;;;;;;5096366;28;20369;-83
2022/06/07 03:22:32;;;;;;;1698.30;471.70;;;13.20;99.90;;;;;;5095439;28;20075;-85
2022/06/07 03:25:01;;;;;;;1868.57;811.42;;;13.10;99.90;;;;;;5095652;28;20140;-85
2022/06/07 03:27:34;;;;;;;1953.50;343.42;;;13.20;99.90;;;;;;5095085;28;20050;-91
2022/06/07 03:29:59;;;;;;;1999.90;876.08;;;13.40;99.90;;;;;;5113270;28;20641;-86
2022/06/07 03:32:25;;;;;;;1999.90;467.95;;;14.30;99.90;;;;;;5094599;28;20135;-83
2022/06/07 03:34:51;;;;;;;1999.90;635.10;;;13.90;99.90;;;;;;5078142;28;20171;-83
2022/06/07 03:37:17;;;;;;;1868.88;327.27;;;13.10;99.90;;;;;;5096268;28;20126;-87
2022/06/07 03:39:44;;;;;;;1999.90;489.42;;;13.00;99.90;;;;;;5094831;28;20127;-84
2022/06/07 03:42:09;;;;;;;1629.80;376.88;;;13.10;99.90;;;;;;5078444;28;20492;-85
2022/06/07 03:44:35;;;;;;;1084.40;214.35;;;13.20;99.90;;;;;;5078567;28;20044;-87
2022/06/07 03:47:01;;;;;;;1999.90;587.00;;;11.90;99.90;;;;;;5078295;28;20047;-86
2022/06/07 03:49:27;;;;;;;1999.90;848.53;;;13.30;99.90;;;;;;5095533;28;20112;-88
2022/06/07 03:51:52;;;;;;;1999.90;521.63;;;13.20;99.90;;;;;;5077496;28;20036;-85
2022/06/07 03:54:18;;;;;;;1999.90;764.92;;;;;;;;;;5078546;28;20040;-87
2022/06/07 03:56:44;;;;;;;1471.75;326.42;;;13.10;99.90;;;;;;5094628;28;20054;-86
2022/06/07 03:59:10;;;;;;;1526.53;320.95;;;13.20;99.90;;;;;;5079339;28;20043;-86
2022/06/07 04:01:37;;;;;;;1999.90;435.63;;;13.20;99.90;;;;;;5094899;28;20043;-84
2022/06/07 04:04:07;;;;;;;1587.50;297.00;;;13.30;99.90;;;;;;5095246;28;20048;-86
2022/06/07 04:09:29;;;;;;;557.30;83.25;;;13.10;99.90;;;;;;5095756;28;20514;-84
2022/06/07 04:11:55;;;;;;;1999.90;824.22;;;13.20;99.90;;;;;;5077836;28;20079;-89
2022/06/07 04:14:21;;;;;;;1999.90;627.08;;;13.40;99.90;;;;;;5112391;28;20078;-88
2022/06/07 04:16:46;;;;;;;1823.47;375.08;;;13.10;99.90;;;;;;5094309;28;20050;-85
2022/06/07 04:19:12;;;;;;;1999.90;768.92;;;13.20;99.90;;;;;;5045189;28;20063;-84
2022/06/07 04:21:38;;;;;;;1999.90;481.75;;;13.40;99.90;;;;;;5077603;28;20051;-84
2022/06/07 04:24:04;;;;;;;1999.90;999.90;;;13.30;99.90;;;;;;5078428;28;20123;-84
2022/06/07 04:26:32;;;;;;;1996.60;700.22;;;13.30;99.90;;;;;;5077375;28;20048;-83
2022/06/07 04:28:58;;;;;;;;;;;13.20;99.90;;;;;;5094663;28;20115;-87
2022/06/07 04:31:25;;;;;;;1697.80;781.80;;;13.20;99.90;;;;;;5095460;28;19920;-84
2022/06/07 04:33:54;;;;;;;1999.90;999.90;;;13.20;99.90;;;;;;5093830;28;20055;-83
2022/06/07 04:36:22;;;;;;;1686.20;773.08;;;13.20;99.90;;;;;;5094832;28;20053;-83
2022/06/07 04:38:48;;;;;;;;;;;13.10;99.90;;;;;;5095067;28;20438;-82
2022/06/07 04:41:16;;;;;;;1621.75;768.20;;;13.40;99.90;;;;;;5094819;28;19948;-82
2022/06/07 04:43:41;;;;;;;;;;;13.10;99.90;;;;;;5112948;28;20043;-81
2022/06/07 04:46:11;;;;;;;1728.97;795.08;;;13.00;99.90;;;;;;5111268;28;19924;-78
2022/06/07 04:48:38;;;;;;;1728.72;780.13;;;13.30;99.90;;;;;;5111147;28;20050;-80
2022/06/07 04:51:10;;;;;;;1774.00;752.80;;;13.80;99.90;;;;;;5095033;28;20472;-75
2022/06/07 04:53:37;;;;;;;1846.80;396.85;;;13.10;99.90;;;;;;5112460;28;20039;-77
2022/06/07 04:56:21;;;;;;;1767.05;338.17;;;13.10;99.90;;;;;;5076187;28;20047;-75
2022/06/07 04:58:47;;;;;;;1999.90;510.48;;;12.90;99.90;;;;;;5112500;28;20054;-75
2022/06/07 05:01:19;;;;;;;1878.20;839.05;;;13.00;99.90;;;;;;5111805;28;20047;-74
2022/06/07 05:03:45;;;;;;;1999.90;999.90;;;13.00;99.90;;;;;;5110857;28;20119;-75
2022/06/07 05:06:36;;;;;;;1999.90;395.10;;;13.30;99.90;;;;;;5111472;28;20043;-75
2022/06/07 05:09:05;;;;;;;1694.00;620.05;;;13.60;99.90;;;;;;5077140;28;20480;-75
2022/06/07 05:11:31;;;;;;;1818.57;650.05;;;13.00;99.90;;;;;;5111834;28;20509;-74
2022/06/07 05:13:59;;;;;;;1999.90;425.92;;;13.00;99.90;;;;;;5112010;28;20055;-74
2022/06/07 05:16:24;;;;;;;;;;;13.00;99.90;;;;;;5111639;28;20130;-74
2022/06/07 05:18:51;;;;;;;1999.90;999.90;;;13.30;99.90;;;;;;5111955;28;19967;-74
2022/06/07 05:21:18;;;;;;;1601.23;708.87;;;14.10;99.90;;;;;;5092724;28;20588;-74
2022/06/07 05:23:44;;;;;;;1999.90;999.90;;;12.80;99.90;;;;;;5111316;28;20695;-74
2022/06/07 05:26:23;;;;;;;1999.90;999.90;;;13.00;99.90;;;;;;5111279;28;20067;-75
2022/06/07 05:28:49;;;;;;;1528.32;319.38;;;13.40;99.90;;;;;;5112362;28;20036;-74
2022/06/07 05:31:15;;;;;;;1745.57;794.55;;;12.90;99.90;;;;;;5112182;28;20058;-74
2022/06/07 05:33:41;;;;;;;826.13;166.63;;;13.00;99.90;;;;;;5093077;28;20531;-76
2022/06/07 05:36:07;;;;;;;1999.90;999.90;;;13.50;99.90;;;;;;5093048;28;20177;-73
2022/06/07 05:38:33;;;;;;;1937.82;843.78;;;12.90;99.90;;;;;;5112161;28;20058;-73
2022/06/07 05:40:59;;;;;;;1122.75;243.50;;;13.40;99.90;;;;;;5111262;28;20617;-74
2022/06/07 05:43:25;;;;;;;1999.90;999.90;;;13.00;99.90;;;;;;5111673;28;20048;-73
2022/06/07 05:45:53;;;;;;;1748.88;803.67;;;13.20;99.90;;;;;;5111349;28;20364;-74
2022/06/07 05:48:19;;;;;;;1846.18;809.30;;;13.10;99.90;;;;;;5112255;28;20148;-74
2022/06/07 05:50:50;;;;;;;1946.80;377.30;;;13.20;99.90;;;;;;5111737;28;20108;-74
2022/06/07 05:53:18;;;;;;;1670.10;780.55;;;14.50;99.90;;;;;;5111705;28;20051;-74
2022/06/07 05:55:44;;;;;;;1344.20;274.27;;;12.70;99.90;;;;;;5111041;28;20043;-74
2022/06/07 05:58:10;;;;;;;1676.10;346.67;;;12.60;99.90;;;;;;5112303;28;20171;-74
2022/06/07 06:00:37;;;;;;;1999.90;713.72;;;12.80;99.90;;;;;;5111468;28;20457;-75
2022/06/07 06:03:03;;;;;;;1547.03;292.70;;;12.70;99.90;;;;;;5111563;28;20065;-72
2022/06/07 06:05:29;;;;;;;1999.90;759.50;;;12.80;99.90;;;;;;5076871;28;20057;-74
2022/06/07 06:10:39;;;;;;;1999.90;999.90;;;13.80;99.90;;;;;;5111465;28;20054;-73
2022/06/07 06:13:05;;;;;;;1572.55;758.65;;;12.20;99.90;;;;;;5111734;28;20365;-72
2022/06/07 06:15:31;;;;;;;1999.90;999.90;;;12.70;99.90;;;;;;5111979;28;20130;-73
2022/06/07 06:17:57;;;;;;;1157.32;201.02;;;12.10;99.90;;;;;;5093089;28;20123;-72
2022/06/07 06:20:23;;;;;;;1999.90;691.35;;;12.10;99.90;;;;;;5111506;28;20047;-72
2022/06/07 06:22:49;;;;;;;1189.65;253.18;;;12.40;99.90;;;;;;5111787;28;20050;-70
2022/06/07 06:25:15;;;;;;;1999.90;999.90;;;12.60;99.90;;;;;;5111302;28;20476;-73
2022/06/07 06:27:41;;;;;;;1999.90;999.90;;;12.20;99.90;;;;;;5111040;28;20047;-72
2022/06/07 06:30:08;;;;;;;1211.15;530.85;;;12.40;99.90;;;;;;5111507;28;20051;-73
2022/06/07 06:32:34;;;;;;;1651.82;442.40;;;12.60;99.90;;;;;;5111606;28;20039;-72
2022/06/07 06:35:00;;;;;;;1999.90;999.90;;;12.30;99.90;;;;;;5111386;28;20131;-73
2022/06/07 06:37:27;;;;;;;1776.53;666.47;;;12.90;99.90;;;;;;5111847;28;20477;-73
2022/06/07 06:39:53;;;;;;;1999.90;999.90;;;12.60;99.90;;;;;;5091927;28;20263;-72
2022/06/07 06:42:19;;;;;;;1999.90;999.90;;;12.80;99.90;;;;;;5111594;28;20403;-72
2022/06/07 06:44:44;;;;;;;1999.90;999.90;;;12.50;99.90;;;;;;5111118;28;20186;-72
2022/06/07 06:47:12;;;;;;;1866.40;446.15;;;;;;;;;;5110994;28;20070;-72
2022/06/07 06:49:39;;;;;;;;;;;12.70;99.90;;;;;;5076478;28;20059;-72
2022/06/07 06:52:05;;;;;;;1839.90;807.75;;;12.90;99.90;;;;;;5110949;28;19919;-72
2022/06/07 06:54:33;;;;;;;1697.93;788.58;;;12.70;99.90;;;;;;5092891;28;20042;-72
2022/06/07 06:56:59;;;;;;;1050.43;207.98;;;12.80;99.90;;;;;;5111195;28;20058;-72
2022/06/07 06:59:24;;;;;;;1999.90;999.90;;;12.90;99.90;;;;;;5093614;28;20408;-72
2022/06/07 07:01:51;;;;;;;1327.10;266.60;;;12.80;99.90;;;;;;5110955;28;20045;-74
2022/06/07 07:04:18;;;;;;;842.40;97.50;;;13.20;99.90;;;;;;5076663;28;20048;-72
2022/06/07 07:06:45;;;;;;;1999.90;999.90;;;12.80;99.90;;;;;;5111489;28;20047;-72
2022/06/07 07:09:12;;;;;;;1999.90;590.40;;;13.00;99.90;;;;;;5092757;28;20066;-72
2022/06/07 07:11:42;;;;;;;1999.90;541.38;;;13.10;99.90;;;;;;5109958;28;20047;-73
2022/06/07 07:14:09;;;;;;;1999.90;999.90;;;13.10;99.90;;;;;;5110823;28;20055;-72
2022/06/07 07:16:39;;;;;;;1999.90;999.90;;;12.90;99.90;;;;;;5111574;28;20047;-72
2022/06/07 07:19:05;;;;;;;1999.90;999.90;;;13.50;99.90;;;;;;5111211;28;20403;-72
2022/06/07 07:21:38;;;;;;;1999.90;999.90;;;13.30;99.90;;;;;;5111522;28;20083;-72
2022/06/07 07:24:06;;;;;;;1999.90;999.90;;;13.00;99.90;;;;;;5110906;28;20519;-73
2022/06/07 07:26:32;;;;;;;1999.90;999.90;;;13.10;99.90;;;;;;5111089;28;20048;-72
2022/06/07 07:28:59;;;;;;;1233.35;533.17;;;13.20;99.90;;;;;;5110705;28;20051;-73
2022/06/07 07:31:31;;;;;;;1999.90;999.90;;;12.80;99.90;;;;;;5110577;28;20052;-74
2022/06/07 07:33:59;;;;;;;1999.90;999.90;;;13.10;99.90;;;;;;5105326;28;20115;-77
2022/06/07 07:36:26;;;;;;;;;;;13.50;99.90;;;;;;5109437;28;20051;-74
2022/06/07 07:38:52;;;;;;;1999.90;999.90;;;13.50;99.90;;;;;;5093456;28;20002;-76
2022/06/07 07:41:28;;;;;;;1999.90;999.90;;;12.80;99.90;;;;;;5112947;28;20047;-75
2022/06/07 07:43:56;;;;;;;1592.45;762.70;;;13.50;99.90;;;;;;5113346;28;20048;-76
2022/06/07 07:46:24;;;;;;;1999.90;999.90;;;13.20;99.90;;;;;;5113487;28;20472;-75
2022/06/07 07:48:50;;;;;;;1665.90;773.50;;;13.50;99.90;;;;;;5114518;28;20056;-74
2022/06/07 07:51:37;;;;;;;1005.88;330.27;;;14.50;99.90;;;;;;5096004;28;20052;-74
2022/06/07 07:54:04;;;;;;;1999.90;999.90;;;13.40;99.90;;;;;;5114092;28;20201;-76
2022/06/07 07:56:30;;;;;;;1999.90;999.90;;;13.60;99.90;;;;;;5114174;28;20416;-75
2022/06/07 07:58:57;;;;;;;1999.90;970.83;;;13.30;99.90;;;;;;5114044;28;20040;-73
2022/06/07 08:01:26;;;;;;;1999.90;895.90;;;13.40;99.90;;;;;;5114116;28;20100;-76
2022/06/07 08:03:54;;;;;;;690.22;123.47;;;13.00;99.90;;;;;;5114568;28;20490;-76
2022/06/07 08:06:22;;;;;;;1837.03;797.13;;;13.00;99.90;;;;;;5113665;28;20052;-75
2022/06/07 08:08:49;;;;;;;;;;;13.30;99.90;;;;;;5096850;28;20138;-75
2022/06/07 08:11:15;;;;;;;1576.80;760.22;;;13.00;99.90;;;;;;5095347;28;20049;-75
2022/06/07 08:13:44;;;;;;;1123.10;224.88;;;13.10;99.90;;;;;;5114030;28;20135;-75
2022/06/07 08:16:11;;;;;;;906.03;136.18;;;13.30;99.90;;;;;;5112234;28;20445;-75
2022/06/07 08:18:37;;;;;;;1363.53;340.30;;;13.50;99.90;;;;;;5113742;28;20543;-76
2022/06/07 08:21:07;;;;;;;1559.78;259.40;;;13.10;99.90;;;;;;5113659;28;20207;-75
2022/06/07 08:23:34;;;;;;;1158.38;191.23;;;13.10;99.90;;;;;;5114172;28;20055;-75
2022/06/07 08:26:01;;;;;;;1600.80;291.40;;;13.50;99.90;;;;;;5112931;28;20047;-75
2022/06/07 08:28:27;;;;;;;1113.70;172.20;;;;;;;;;;5095344;28;20131;-75
2022/06/07 08:30:53;;;;;;;1717.75;317.30;;;13.40;99.90;;;;;;5113391;28;20044;-76
2022/06/07 08:38:53;;;;;;;1642.18;265.20;;;13.20;99.90;;;;;;5113407;28;20074;-76
2022/06/07 08:41:36;;;;;;;1999.90;628.85;;;13.40;99.90;;;;;;5112940;28;20284;-76
2022/06/07 08:44:27;;;;;;;1844.38;815.95;;;13.70;99.90;;;;;;5112916;28;20392;-75
2022/06/07 08:46:57;;;;;;;1898.88;550.92;;;13.40;99.90;;;;;;5111843;28;20495;-76
2022/06/07 08:49:23;;;;;;;1999.90;541.22;;;13.50;99.90;;;;;;5112090;28;20101;-76
2022/06/07 08:52:18;;;;;;;1166.45;243.32;;;13.60;99.90;;;;;;5094282;28;20075;-75
2022/06/07 08:54:44;;;;;;;1736.53;678.20;;;13.70;99.90;;;;;;5111919;28;20075;-77
2022/06/07 08:57:22;;;;;;;1999.90;784.03;;;13.80;99.90;;;;;;5094944;28;20417;-77
2022/06/07 08:59:51;;;;;;;1466.47;277.38;;;13.90;99.90;;;;;;5112698;28;20074;-77
2022/06/07 09:02:33;;;;;;;1999.90;778.50;;;14.30;99.90;;;;;;5094396;28;20048;-77
2022/06/07 09:04:59;;;;;;;1767.75;650.38;;;14.20;99.90;;;;;;5112892;28;20043;-76
2022/06/07 09:07:25;;;;;;;1980.30;438.83;;;13.90;99.90;;;;;;5113144;28;20507;-77
2022/06/07 09:12:57;;;;;;;1999.90;782.50;;;13.90;99.90;;;;;;5113034;28;20063;-77
2022/06/07 09:15:24;;;;;;;1709.50;784.30;;;13.90;99.90;;;;;;5091864;28;20051;-77
2022/06/07 09:17:56;;;;;;;1999.90;999.90;;;13.80;99.90;;;;;;5111565;28;20507;-77
2022/06/07 09:20:41;;;;;;;1999.90;999.90;;;14.30;99.90;;;;;;5111687;28;20490;-76
2022/06/07 09:23:32;;;;;;;1294.97;221.60;;;14.00;99.90;;;;;;5076491;28;20186;-77
2022/06/07 09:26:13;;;;;;;1999.90;464.73;;;13.80;99.90;;;;;;5111563;28;20051;-76
2022/06/07 09:28:39;;;;;;;1999.90;741.20;;;13.70;99.90;;;;;;5093277;28;20404;-79
2022/06/07 09:31:10;;;;;;;1812.43;809.28;;;13.70;99.90;;;;;;5110805;28;20039;-76
2022/06/07 09:33:53;;;;;;;1999.90;999.90;;;13.90;99.90;;;;;;5112175;28;20056;-76
2022/06/07 09:36:25;;;;;;;1762.07;811.00;;;13.90;99.90;;;;;;5094149;28;20047;-76
2022/06/07 09:38:57;;;;;;;768.55;96.45;;;14.20;99.90;;;;;;5112434;28;20039;-77
2022/06/07 09:41:40;;;;;;;975.40;180.63;;;13.90;99.90;;;;;;5093052;28;20109;-77
2022/06/07 09:44:23;;;;;;;1761.75;800.58;;;13.90;99.90;;;;;;5111788;28;20122;-76
2022/06/07 09:47:03;;;;;;;1940.53;819.03;;;13.90;99.90;;;;;;5112188;28;20047;-76
2022/06/07 09:49:29;;;;;;;1879.28;815.38;;;14.30;99.90;;;;;;5112017;28;20108;-76
2022/06/07 09:52:02;;;;;;;1392.75;563.92;;;14.20;99.90;;;;;;5111921;28;20426;-76
2022/06/07 09:54:27;;;;;;;1034.47;228.18;;;13.90;99.90;;;;;;5111706;28;20075;-75
2022/06/07 09:56:56;;;;;;;1999.90;999.90;;;14.30;99.90;;;;;;5111952;28;20052;-76
2022/06/07 09:59:36;;;;;;;1971.97;465.23;;;14.10;99.90;;;;;;5111337;28;20404;-76
2022/06/07 10:02:24;;;;;;;1999.90;999.90;;;14.60;99.90;;;;;;5111786;28;20039;-76
2022/06/07 10:04:55;;;;;;;1747.50;332.13;;;14.00;99.90;;;;;;5111825;28;20414;-76
2022/06/07 10:07:47;;;;;;;1999.90;999.90;;;14.30;99.90;;;;;;5111383;28;20051;-78
2022/06/07 10:10:29;;;;;;;1605.85;764.70;;;14.10;99.90;;;;;;5110824;28;20104;-75
2022/06/07 10:13:20;;;;;;;1639.65;256.55;;;14.40;99.90;;;;;;5111776;28;20035;-75
2022/06/07 10:16:01;;;;;;;1645.72;768.97;;;14.30;99.90;;;;;;5093420;28;20040;-76
2022/06/07 10:19:09;;;;;;;1591.78;764.47;;;14.30;99.90;;;;;;5093288;28;20394;-75
2022/06/07 10:21:53;;;;;;;1999.90;858.20;;;14.80;99.90;;;;;;5111500;28;20138;-76
2022/06/07 10:24:29;;;;;;;1999.90;773.80;;;14.30;99.90;;;;;;5093300;28;20047;-75
2022/06/07 10:27:02;;;;;;;1999.90;999.90;;;14.20;99.90;;;;;;5093069;28;20066;-75
2022/06/07 10:29:40;;;;;;;1999.90;999.90;;;14.30;99.90;;;;;;5110786;28;20534;-75
2022/06/07 10:32:29;;;;;;;1999.90;570.78;;;14.50;99.90;;;;;;5111584;28;20057;-75
2022/06/07 10:34:55;;;;;;;;;;;14.70;99.90;;;;;;5111994;28;20069;-78
2022/06/07 10:37:40;;;;;;;1999.90;769.30;;;14.60;99.90;;;;;;5111358;28;20359;-75
2022/06/07 10:40:18;;;;;;;1999.90;999.90;;;14.20;99.90;;;;;;5111281;28;20051;-75
2022/06/07 10:42:53;;;;;;;1999.90;785.28;;;14.50;99.90;;;;;;5111755;28;20036;-76
2022/06/07 10:45:21;;;;;;;1999.90;999.90;;;14.60;99.90;;;;;;5111180;28;20040;-76
2022/06/07 10:48:03;;;;;;;1790.38;662.30;;;14.40;99.90;;;;;;5093749;28;20421;-75
2022/06/07 10:50:38;;;;;;;1195.88;525.00;;;14.40;99.90;;;;;;5111471;28;20429;-75
2022/06/07 10:53:29;;;;;;;1871.25;448.45;;;14.50;99.90;;;;;;5111497;28;20460;-76
2022/06/07 10:56:13;;;;;;;1999.90;999.90;;;14.50;99.90;;;;;;5093203;28;20040;-76
2022/06/07 10:58:39;;;;;;;1852.80;402.10;;;15.10;99.90;;;;;;5111860;28;20130;-75
2022/06/07 11:01:14;;;;;;;1999.90;662.35;;;15.20;99.90;;;;;;5075728;28;20086;-74
2022/06/07 11:04:00;;;;;;;1846.20;782.28;;;14.90;99.90;;;;;;5111282;28;20035;-74
2022/06/07 11:09:22;;;;;;;1999.90;999.90;;;15.10;99.90;;;;;;5111158;28;20085;-78
2022/06/07 11:11:53;;;;;;;1489.85;586.70;;;15.40;99.90;;;;;;5111008;28;20044;-75
2022/06/07 11:14:39;;;;;;;1644.45;772.13;;;15.40;99.90;;;;;;5112659;28;20504;-75
2022/06/07 11:17:22;;;;;;;1999.90;664.03;;;15.30;99.90;;;;;;5115146;28;20145;-75
2022/06/07 11:19:50;;;;;;;1873.97;374.75;;;15.20;99.90;;;;;;5097018;28;20102;-74
2022/06/07 11:22:20;;;;;;;1278.57;558.78;;;15.10;99.90;;;;;;5096661;28;20044;-77
2022/06/07 11:25:01;;;;;;;1636.95;769.40;;;15.40;99.90;;;;;;5113791;28;20039;-74
2022/06/07 11:27:30;;;;;;;1999.90;486.13;;;15.30;99.90;;;;;;5109204;28;20114;-77
2022/06/07 11:30:21;;;;;;;696.25;111.50;;;15.00;99.90;;;;;;5113773;28;20165;-74
2022/06/07 11:32:55;;;;;;;1375.63;257.67;;;15.00;99.90;;;;;;5114133;28;20036;-75
2022/06/07 11:35:52;;;;;;;1999.90;999.90;;;15.40;99.90;;;;;;5113971;28;20044;-75
2022/06/07 11:38:17;;;;;;;1999.90;999.90;;;15.50;99.90;;;;;;5113829;28;20345;-73
2022/06/07 11:40:45;;;;;;;1999.90;999.90;;;16.10;99.90;;;;;;5113462;28;20077;-73
2022/06/07 11:43:50;;;;;;;1999.90;636.78;;;16.50;99.90;;;;;;5114267;28;20075;-73
2022/06/07 11:46:51;;;;;;;1591.68;767.70;;;16.00;99.90;;;;;;5011017;28;20561;-74
2022/06/07 11:49:25;;;;;;;1999.90;999.90;;;16.30;99.90;;;;;;4990470;28;20137;-77
2022/06/07 11:51:58;;;;;;;1999.90;999.90;;;16.00;99.90;;;;;;5090642;28;20388;-74
2022/06/07 11:54:28;;;;;;;1999.90;999.90;;;16.50;99.90;;;;;;5114420;28;20043;-73
2022/06/07 11:57:00;;;;;;;1999.90;999.90;;;16.70;99.90;;;;;;5114152;28;20047;-73
2022/06/07 11:59:55;;;;;;;1999.90;999.90;;;16.80;99.90;;;;;;5113912;28;20491;-73
2022/06/07 12:02:27;;;;;;;1999.90;839.38;;;16.50;99.90;;;;;;5023217;28;20517;-74
2022/06/07 12:04:59;;;;;;;1999.90;999.90;;;15.90;99.90;;;;;;5096409;28;20436;-73
2022/06/07 12:07:29;;;;;;;1999.90;999.90;;;16.10;99.90;;;;;;5114111;28;20079;-74
2022/06/07 12:09:58;;;;;;;1999.90;999.90;;;16.20;99.90;;;;;;5113512;28;20170;-73
2022/06/07 12:12:37;;;;;;;1999.90;999.90;;;16.10;99.90;;;;;;5113798;28;20035;-73
2022/06/07 12:15:15;;;;;;;1999.90;999.90;;;16.40;99.90;;;;;;5114376;28;20036;-73
2022/06/07 12:18:06;;;;;;;1999.90;999.90;;;16.30;99.90;;;;;;5113656;28;20047;-73
2022/06/07 12:20:40;;;;;;;1999.90;999.90;;;16.30;99.90;;;;;;5113176;28;20105;-74
2022/06/07 12:23:19;;;;;;;1999.90;999.90;;;16.30;99.90;;;;;;5113928;28;20356;-73
2022/06/07 12:26:15;;;;;;;1999.90;999.90;;;16.30;99.90;;;;;;5095067;28;20036;-74
2022/06/07 12:28:56;;;;;;;1999.90;999.90;;;16.00;99.90;;;;;;5113432;28;20039;-75
2022/06/07 12:31:31;;;;;;;1999.90;999.90;;;16.00;99.90;;;;;;5094712;28;20178;-77
2022/06/07 12:34:01;;;;;;;1999.90;999.90;;;16.20;99.90;;;;;;5095879;28;20432;-74
2022/06/07 12:36:38;;;;;;;1130.25;536.30;;;15.80;99.90;;;;;;5113737;28;20047;-73
2022/06/07 12:39:13;;;;;;;1999.90;999.90;;;16.30;99.90;;;;;;5113561;28;20134;-74
2022/06/07 12:41:53;;;;;;;1999.90;999.90;;;16.20;99.90;;;;;;5112150;28;20047;-75
2022/06/07 12:44:37;;;;;;;1999.90;999.90;;;16.60;99.90;;;;;;5113777;28;20044;-76